CheckWX is a tool to help pilots better visualize weather data.  It is not intended as a substitute for an official pre-flight weather briefing.

20:28:39 UTC

C62 METAR
Kendallville Municipal Airport
Kendallville, Indiana, USA
Current

34 mins ago

KC62 281955Z AUTO 29004KT 7SM OVC010 00/M02 A3002 RMK AO2 T10011020
Observed
Jan-28 @ 19:55 UTC
Wind
  • 290° at 4 KTS
Visibility
7 SM
Flight Rules
MVFR
Cloud Levels
  • Overcast at 1,000' AGL
Temperature
-0°C / 32°F
Dewpoint
-2°C / 28°F
Humidity
87%
Altimeter
30.02" Hg
Pressure
1016.62 hPa
Previous

54 mins ago

KC62 281935Z AUTO 28007KT 4SM BR OVC010 00/M02 A3002 RMK AO2 T10011020
Observed
Jan-28 @ 19:35 UTC
Wind
  • 280° at 7 KTS
Visibility
4 SM
Flight Rules
MVFR
Conditions
Mist
Cloud Levels
  • Overcast at 1,000' AGL
Temperature
-0°C / 32°F
Dewpoint
-2°C / 28°F
Humidity
87%
Altimeter
30.02" Hg
Pressure
1016.62 hPa
Previous

1 hour ago

KC62 281915Z AUTO 27006KT 5SM BR BKN010 OVC017 00/M02 A3003 RMK AO2 T10011020
Observed
Jan-28 @ 19:15 UTC
Wind
  • 270° at 6 KTS
Visibility
5 SM
Flight Rules
MVFR
Conditions
Mist
Cloud Levels
  • Broken at 1,000' AGL
  • Overcast at 1,700' AGL
Temperature
-0°C / 32°F
Dewpoint
-2°C / 28°F
Humidity
87%
Altimeter
30.03" Hg
Pressure
1016.92 hPa